Little Rock, AR (72201)

5:06 AM CST on February 09, 2016 (GMT -0600)
Democrat-Gazette Downtown | | Change Station
CLOSE
Current Station
Personal Weather Station
Location: Little Rock, AR
Elevation: 371 ft
Nearby Weather Stations
Active Advisory: Lake Wind Advisory

Elev 371 ft 34.74 °N, 92.27 °W | Updated 19 seconds ago

Clear
Clear
37.0 °F
Feels Like 37 °F
N
1.3
Wind Variable Wind from ENE
Gusts 4.9 mph

Today
High -- | Low -- °F
--% Chance of Precip.
Yesterday
High -- | Low -- °F
Precip. -- in
Pressure 30.05 in
Visibility 10.0 miles
Clouds Clear
Windchill 37 °F
Dew Point 16 °F
Humidity 42%
Rainfall 0.00 in
Snow Depth Not available.
7:01 AM 5:45 PM
New Moon, 1% visible
METAR KLIT 091053Z 29013G20KT 10SM CLR 03/M09 A3004 RMK AO2 SLP174 T00281089
Pressure 30.05 in
Visibility 10.0 miles
Clouds Clear
Windchill 37 °F
Dew Point 16 °F
Humidity 42%
Rainfall 0.00 in
Snow Depth Not available.
7:01 AM 5:45 PM
New Moon, 1% visible
METAR KLIT 091053Z 29013G20KT 10SM CLR 03/M09 A3004 RMK AO2 SLP174 T00281089

10-Day Weather Forecast

Almanac

Astronomy

Feb. 09, 2016 Rise Set
Actual Time
Civil Twilight
Nautical Twilight
Astronomical Twilight
Moon
Length of Visible Light
Length of Day
Tomorrow will be .
, % of the Moon is Illuminated

Today's Extremes

State Highs State Lows

Community

WunderPhotos

Upload Photos

1,891,565 photos uploaded!

WunderBlog® & News

Nearby

Air Quality

  Air Quality AQ Index Pollutant
Not available.

Snow Depth

Station Depth Elevation

Earthquake Activity

City Distance Mag. Time & Date
Minimum magnitude displayed is 2.5.

Coastal Water Temperatures

Place Temperature

Stations

Nearby Weather Stations

Station Location Temp. Windchill Dew Point Humidity Wind Precip. Elev Updated Type
                   

Watches & Warnings

Lake Wind Advisory
Issued: 2:22 AM CST Feb. 9, 2016 – National Weather Service

... Lake Wind Advisory in effect from 6 am this morning to 6 PM
CST this evening...

The National Weather Service in Little Rock has issued a lake
Wind Advisory... which is in effect from 6 am this morning to 6 PM
CST this evening.

* Event... gusty northwest winds spread across the forecast area
today.

* Areas affected... this will affect much of Arkansas.

* Winds... sustained winds of 15 to 25 mph with gusts up to 35
mph.

* Timing... strong winds will develop shortly after sunrise and
last through the day.

* Impacts... boaters should use extra caution today.
Additionally... winds this strong can make driving difficult at
times... especially for high profile vehicles.

Precautionary/preparedness actions...

A lake Wind Advisory indicates that winds will cause rough chop
on area lakes. Small boats will be especially prone to capsizing.